Strait of Georgia - south of Nanaimo: Past 24 Hour Conditions

 

Halibut Bank - 46146

11:00 PM PST 26 November 2014Buoy position: 49.34N 123.72W
This table is a summary of hourly weather conditions for the past 24 hours.
Date / Time
(PST)
Wind(knots) Wave height(m) Wave period(s) Pressure(kPa) Air tempC) Water tempC)
26 November 2014
23:00 ESE 19 gust 21 0.8 4.0 100.6 12 9
22:00 E 19 gust 23 0.6 3.0 100.6 11 9
21:00 E 18 gust 21 0.6 3.0 100.7 10 9
20:00 ESE 18 gust 21 0.5 3.0 100.8 11 9
19:00 ESE 18 gust 21 0.5 3.0 100.9 11 9
18:00 E 16 gust 19 0.4 3.0 101.0 10 9
17:00 E 18 gust 21 0.4 3.0 101.1 11 9
16:00 E 16 gust 19 0.4 3.0 101.3 10 9
15:00 E 14 gust 16 0.3 2.0 101.4 10 9
14:00 E 14 gust 18 0.4 3.0 101.4 10 9
13:00 E 12 gust 16 0.3 3.0 101.5 9 9
12:00 E 10 gust 12 0.3 3.0 101.6 9 9
11:00 ESE 12 gust 16 0.3 3.0 101.7 8 9
10:00 E 8 gust 10 0.3 3.0 101.7 8 9
9:00 ESE 12 gust 14 0.3 3.0 101.7 8 9
8:00 ESE 12 gust 14 0.3 2.0 101.8 7 9
7:00 ESE 8 gust 8 0.2 3.0 101.8 7 9
6:00 ESE 8 gust 10 0.2 2.0 101.9 7 9
5:00 E 10 gust 10 0.2 3.0 101.9 7 9
4:00 ESE 10 gust 12 0.2 2.0 101.9 7 9
3:00 ESE 8 gust 10 0.2 2.0 102.0 6 9
2:00 E 8 gust 10 0.2 2.0 102.0 6 9
1:00 ESE 8 gust 8 0.2 3.0 102.1 6 9
0:00 ESE 2 gust 4 0.2 2.0 102.1 6 9
25 November 2014
23:00 E 4 gust 6 0.2 2.0 102.1 6 9
 
Map of Pacific - Georgia Basin marine weather areas Tsawwassen Ferry Terminal Sentry Shoal - 46131 Halibut Bank - 46146 La Perouse Bank - 46206 Discovery Island Esquimalt Harbour Kelp Reefs Malahat Race Rocks Lightstation Saturna Island Sheringham Point University of Victoria Victoria Gonzales Victoria Int'l Airport Ballenas Islands Campbell River Airport Comox Airport Entrance Island Fanny Island Nanaimo Airport Sisters Islets Estevan Point Tofino Airport Grief Point Powell River Airport Sechelt Point Atkinson Sand Heads Lightstation Vancouver Harbour Vancouver Int'l Airport West Vancouver Port Alberni Howe Sound - Pam Rocks Squamish Airport